Wingerworth, United Kingdom
Current Conditions -  °F | °C
As of 2:50 AM on Monday 24 Nov 2014 (Local Time) from EGNX Reporting Station
Clear Clear  
Wind Chill: 30°   Ceiling: Unl
Heat Index: 37°   Visibility: 6mi
Dew Point: 34°   Wind: 10mph
Humidity: 87%   Direction: 240°WSW
Pressure: 30.21"   Gusts: NA
Location:  53.2°N, 1.44°W
Report Text: EGNX 240250Z 24009KT CAVOK 03/01 Q1023
Loading
Personal Weather Stations






























Interactive Weather Map New forecast layout! Learn more

10-Day Weather Forecast

Advertisements
Track Severe Weather on mobile